Aylesford, Canada
Current Conditions -  °F | °C
As of 10:00 PM on Saturday 25 Oct 2014 (Local Time) from CYZX Reporting Station
Light Rain Light Rain  
Wind Chill: 44°   Ceiling: 900
Heat Index: 46°   Visibility: 2mi
Dew Point: 46°   Wind: 5mph
Humidity: 100%   Direction: 250°WSW
Pressure: 29.56"   Gusts: NA
Location:  45.03°N, 64.84°W
Report Text: CYZX 260100Z 25004KT 2SM -RA BR BKN009 OVC018 08/08 A2956 RMK SF7SC1 VIS VRB 11/2-21/2 CIG VRB 6-12 WNDY HILL 33005KT SLP010
Loading
Personal Weather Stations






























Interactive Weather Map
Tropical Storm Tracking
New forecast layout! Learn more

10-Day Weather Forecast

Advertisements
Track Severe Weather on mobile